Search for airport 
image banner adimage banner adimage banner ad
image banner ad

O42 - Woodlake

Located in Woodlake, United States

ICAO - O42, IATA -

Data provided by Airmate  

General information

Coordinates: N36°23'56" W119°6'25"
Elevation is 425 feet MSL.
Magnetic variation is 15° East
View others Airports in California

Operational data

Special qualification required
Current time UTC:
Current local time:
Weather at : KVIS - Visalia Muni ( 27 km )
METAR: KVIS 240756Z AUTO 29007KT 10SM CLR 22/14 A2992 RMK AO2 SLP135 T02220139 403440172
TAF: KVIS 240520Z 2406/2506 VRB05KT P6SM SKC
View NOTAMs / SUP AIP / TFR affecting this airport [VIEW]
Communications frequencies: [VIEW]

Runways:

RWY identifierQFULength (ft)Width (ft)SurfaceLDA (ft)
07220350OTHER
25220350OTHER

Airport contact information

Address: Woodlake United States

Satellite view of O42